Terminal Aerodrome Forecast
Issued by NWS Green Bay, WI

Home | Current Version | Previous Version | Text Only | Print | Product List | Glossary Off
Versions: 1 2 3 4 5 6 7 8 9 10 11 12 13 14 15 16 17 18 19 20 21 22 23 24 25 26 27 28 29 30 31 32 33 34 35 36 37 38 39 40 41 42 43 44 45 46 47 48 49 50

000
FTUS43 KGRB 280520
TAFGRB
TAF
KGRB 280520Z 2806/2906 15005KT 6SM BR SCT007 BKN070
      TEMPO 2806/2808 4SM -SHRA BR BKN007
     FM280800 16006KT 4SM BR SCT004 BKN010
      TEMPO 2808/2812 1SM -SHRA BR BKN004
     FM281200 16006KT 3SM BR OVC006
     FM281500 18010KT P6SM VCSH OVC008
     FM281700 19011KT P6SM VCSH BKN015
     FM281800 19011KT P6SM VCSH BKN025
     FM282000 19012KT P6SM VCSH BKN045
     FM290000 18009KT P6SM VCSH SCT040 BKN080=

USA.gov is the U.S. government's official web portal to all federal, state and local government web resources and services.